sensor_id;sensor_type;location;lat;lon;timestamp;pressure;altitude;pressure_sealevel;temperature;humidity
51530;BME280;37613;51.788;21.582;2023-01-10T00:00:11;99166.83;;;5.51;100.00
51530;BME280;37613;51.788;21.582;2023-01-10T00:04:51;99164.70;;;5.52;100.00
51530;BME280;37613;51.788;21.582;2023-01-10T00:09:03;99155.63;;;5.51;100.00
51530;BME280;37613;51.788;21.582;2023-01-10T00:13:18;99160.48;;;5.49;100.00
51530;BME280;37613;51.788;21.582;2023-01-10T00:17:28;99173.57;;;5.49;100.00
51530;BME280;37613;51.788;21.582;2023-01-10T00:21:39;99174.42;;;5.46;100.00
51530;BME280;37613;51.788;21.582;2023-01-10T00:25:52;99178.66;;;5.47;100.00
51530;BME280;37613;51.788;21.582;2023-01-10T00:30:06;99185.23;;;5.46;100.00
51530;BME280;37613;51.788;21.582;2023-01-10T00:34:23;99189.23;;;5.44;100.00
51530;BME280;37613;51.788;21.582;2023-01-10T00:38:32;99194.62;;;5.43;100.00
51530;BME280;37613;51.788;21.582;2023-01-10T00:42:41;99202.06;;;5.43;100.00
51530;BME280;37613;51.788;21.582;2023-01-10T00:47:12;99207.08;;;5.43;100.00
51530;BME280;37613;51.788;21.582;2023-01-10T00:51:24;99205.44;;;5.43;100.00
51530;BME280;37613;51.788;21.582;2023-01-10T00:55:39;99207.79;;;5.43;100.00
51530;BME280;37613;51.788;21.582;2023-01-10T00:59:54;99212.73;;;5.43;100.00
51530;BME280;37613;51.788;21.582;2023-01-10T01:03:59;99217.51;;;5.42;100.00
51530;BME280;37613;51.788;21.582;2023-01-10T01:08:14;99217.59;;;5.41;100.00
51530;BME280;37613;51.788;21.582;2023-01-10T01:12:22;99209.98;;;5.39;100.00
51530;BME280;37613;51.788;21.582;2023-01-10T01:16:30;99208.48;;;5.38;100.00
51530;BME280;37613;51.788;21.582;2023-01-10T01:20:33;99216.16;;;5.38;100.00
51530;BME280;37613;51.788;21.582;2023-01-10T01:24:40;99214.60;;;5.38;100.00
51530;BME280;37613;51.788;21.582;2023-01-10T01:28:43;99218.83;;;5.38;100.00
51530;BME280;37613;51.788;21.582;2023-01-10T01:32:45;99223.06;;;5.38;100.00
51530;BME280;37613;51.788;21.582;2023-01-10T01:36:50;99228.39;;;5.38;100.00
51530;BME280;37613;51.788;21.582;2023-01-10T01:40:55;99233.33;;;5.38;100.00
51530;BME280;37613;51.788;21.582;2023-01-10T01:49:41;99247.83;;;5.38;100.00
51530;BME280;37613;51.788;21.582;2023-01-10T01:53:59;99251.59;;;5.39;100.00
51530;BME280;37613;51.788;21.582;2023-01-10T01:58:17;99257.08;;;5.39;100.00
51530;BME280;37613;51.788;21.582;2023-01-10T02:02:26;99263.24;;;5.37;100.00
51530;BME280;37613;51.788;21.582;2023-01-10T02:06:32;99266.29;;;5.34;100.00
51530;BME280;37613;51.788;21.582;2023-01-10T02:10:57;99268.94;;;5.30;100.00
51530;BME280;37613;51.788;21.582;2023-01-10T02:15:12;99268.05;;;5.27;100.00
51530;BME280;37613;51.788;21.582;2023-01-10T02:33:36;99269.52;;;5.24;100.00
51530;BME280;37613;51.788;21.582;2023-01-10T02:38:03;99279.95;;;5.24;100.00
51530;BME280;37613;51.788;21.582;2023-01-10T02:42:18;99285.20;;;5.25;100.00
51530;BME280;37613;51.788;21.582;2023-01-10T02:46:29;99282.45;;;5.25;100.00
51530;BME280;37613;51.788;21.582;2023-01-10T02:50:48;99277.77;;;5.26;100.00
51530;BME280;37613;51.788;21.582;2023-01-10T02:55:00;99282.14;;;5.26;100.00
51530;BME280;37613;51.788;21.582;2023-01-10T02:59:35;99274.70;;;5.27;100.00
51530;BME280;37613;51.788;21.582;2023-01-10T03:04:01;99274.48;;;5.27;100.00
51530;BME280;37613;51.788;21.582;2023-01-10T03:08:36;99285.52;;;5.27;100.00
51530;BME280;37613;51.788;21.582;2023-01-10T03:17:40;99293.66;;;5.27;100.00
51530;BME280;37613;51.788;21.582;2023-01-10T03:21:56;99290.69;;;5.26;100.00
51530;BME280;37613;51.788;21.582;2023-01-10T03:26:08;99298.04;;;5.25;100.00
51530;BME280;37613;51.788;21.582;2023-01-10T03:30:47;99302.74;;;5.25;100.00
51530;BME280;37613;51.788;21.582;2023-01-10T03:34:58;99304.70;;;5.25;100.00
51530;BME280;37613;51.788;21.582;2023-01-10T03:39:17;99310.66;;;5.24;100.00
51530;BME280;37613;51.788;21.582;2023-01-10T03:49:12;99315.36;;;5.25;100.00
51530;BME280;37613;51.788;21.582;2023-01-10T03:53:24;99315.67;;;5.25;100.00
51530;BME280;37613;51.788;21.582;2023-01-10T03:57:40;99316.23;;;5.25;100.00
51530;BME280;37613;51.788;21.582;2023-01-10T04:01:52;99321.08;;;5.27;100.00
51530;BME280;37613;51.788;21.582;2023-01-10T04:06:02;99319.13;;;5.26;100.00
51530;BME280;37613;51.788;21.582;2023-01-10T04:10:16;99319.60;;;5.26;100.00
51530;BME280;37613;51.788;21.582;2023-01-10T04:14:24;99327.04;;;5.26;100.00
51530;BME280;37613;51.788;21.582;2023-01-10T04:18:28;99332.21;;;5.24;100.00
51530;BME280;37613;51.788;21.582;2023-01-10T04:22:39;99341.20;;;5.23;100.00
51530;BME280;37613;51.788;21.582;2023-01-10T04:26:45;99348.02;;;5.21;100.00
51530;BME280;37613;51.788;21.582;2023-01-10T04:30:57;99355.66;;;5.20;100.00
51530;BME280;37613;51.788;21.582;2023-01-10T04:35:10;99364.35;;;5.19;100.00
51530;BME280;37613;51.788;21.582;2023-01-10T04:39:24;99368.27;;;5.18;100.00
51530;BME280;37613;51.788;21.582;2023-01-10T04:43:32;99377.67;;;5.17;100.00
51530;BME280;37613;51.788;21.582;2023-01-10T04:48:00;99385.34;;;5.16;100.00
51530;BME280;37613;51.788;21.582;2023-01-10T04:52:13;99395.05;;;5.16;100.00
51530;BME280;37613;51.788;21.582;2023-01-10T04:56:35;99406.10;;;5.16;100.00
51530;BME280;37613;51.788;21.582;2023-01-10T05:00:51;99417.23;;;5.18;100.00
51530;BME280;37613;51.788;21.582;2023-01-10T05:05:15;99428.46;;;5.20;100.00
51530;BME280;37613;51.788;21.582;2023-01-10T05:09:22;99442.44;;;5.22;100.00
51530;BME280;37613;51.788;21.582;2023-01-10T05:13:35;99449.90;;;5.24;100.00
51530;BME280;37613;51.788;21.582;2023-01-10T05:17:55;99456.56;;;5.25;100.00
51530;BME280;37613;51.788;21.582;2023-01-10T05:22:06;99461.42;;;5.26;100.00
51530;BME280;37613;51.788;21.582;2023-01-10T05:26:20;99460.33;;;5.26;100.00
51530;BME280;37613;51.788;21.582;2023-01-10T05:30:43;99463.70;;;5.27;100.00
51530;BME280;37613;51.788;21.582;2023-01-10T05:34:51;99472.80;;;5.27;100.00
51530;BME280;37613;51.788;21.582;2023-01-10T05:39:02;99481.18;;;5.28;100.00
51530;BME280;37613;51.788;21.582;2023-01-10T05:43:07;99489.01;;;5.26;100.00
51530;BME280;37613;51.788;21.582;2023-01-10T05:47:19;99494.94;;;5.22;100.00
51530;BME280;37613;51.788;21.582;2023-01-10T05:51:32;99500.39;;;5.20;100.00
51530;BME280;37613;51.788;21.582;2023-01-10T05:55:41;99509.23;;;5.19;100.00
51530;BME280;37613;51.788;21.582;2023-01-10T05:59:51;99515.96;;;5.19;100.00
51530;BME280;37613;51.788;21.582;2023-01-10T06:03:56;99524.74;;;5.18;100.00
51530;BME280;37613;51.788;21.582;2023-01-10T06:08:03;99533.90;;;5.18;100.00
51530;BME280;37613;51.788;21.582;2023-01-10T06:12:14;99540.23;;;5.16;100.00
51530;BME280;37613;51.788;21.582;2023-01-10T06:16:27;99543.02;;;5.13;100.00
51530;BME280;37613;51.788;21.582;2023-01-10T06:20:31;99549.48;;;5.12;100.00
51530;BME280;37613;51.788;21.582;2023-01-10T06:24:40;99553.48;;;5.11;100.00
51530;BME280;37613;51.788;21.582;2023-01-10T06:28:51;99553.88;;;5.11;100.00
51530;BME280;37613;51.788;21.582;2023-01-10T06:32:58;99560.45;;;5.11;100.00
51530;BME280;37613;51.788;21.582;2023-01-10T06:37:07;99562.96;;;5.11;100.00
51530;BME280;37613;51.788;21.582;2023-01-10T06:41:18;99562.25;;;5.10;100.00
51530;BME280;37613;51.788;21.582;2023-01-10T06:45:28;99563.89;;;5.09;100.00
51530;BME280;37613;51.788;21.582;2023-01-10T06:49:39;99570.30;;;5.08;100.00
51530;BME280;37613;51.788;21.582;2023-01-10T06:53:47;99575.23;;;5.07;100.00
51530;BME280;37613;51.788;21.582;2023-01-10T06:58:01;99576.80;;;5.09;100.00
51530;BME280;37613;51.788;21.582;2023-01-10T07:02:15;99583.87;;;5.10;100.00
51530;BME280;37613;51.788;21.582;2023-01-10T07:06:25;99594.70;;;5.11;100.00
51530;BME280;37613;51.788;21.582;2023-01-10T07:10:49;99597.54;;;5.13;100.00
51530;BME280;37613;51.788;21.582;2023-01-10T07:14:55;99599.52;;;5.14;100.00
51530;BME280;37613;51.788;21.582;2023-01-10T07:19:02;99609.16;;;5.15;100.00
51530;BME280;37613;51.788;21.582;2023-01-10T07:23:42;99616.63;;;5.15;100.00
51530;BME280;37613;51.788;21.582;2023-01-10T07:27:52;99614.73;;;5.16;100.00
51530;BME280;37613;51.788;21.582;2023-01-10T07:32:13;99623.13;;;5.16;100.00
51530;BME280;37613;51.788;21.582;2023-01-10T07:36:23;99630.66;;;5.18;100.00
51530;BME280;37613;51.788;21.582;2023-01-10T07:40:38;99631.53;;;5.18;100.00
51530;BME280;37613;51.788;21.582;2023-01-10T07:44:56;99639.23;;;5.20;100.00
51530;BME280;37613;51.788;21.582;2023-01-10T07:49:06;99647.20;;;5.23;100.00
51530;BME280;37613;51.788;21.582;2023-01-10T07:53:14;99655.77;;;5.27;100.00
51530;BME280;37613;51.788;21.582;2023-01-10T07:57:25;99659.80;;;5.29;100.00
51530;BME280;37613;51.788;21.582;2023-01-10T08:01:44;99658.84;;;5.29;100.00
51530;BME280;37613;51.788;21.582;2023-01-10T08:06:03;99657.98;;;5.28;100.00
51530;BME280;37613;51.788;21.582;2023-01-10T08:10:19;99666.08;;;5.29;100.00
51530;BME280;37613;51.788;21.582;2023-01-10T08:14:38;99670.96;;;5.32;100.00
51530;BME280;37613;51.788;21.582;2023-01-10T08:18:50;99674.59;;;5.34;100.00
51530;BME280;37613;51.788;21.582;2023-01-10T08:22:59;99680.69;;;5.33;100.00
51530;BME280;37613;51.788;21.582;2023-01-10T08:27:07;99687.73;;;5.31;100.00
51530;BME280;37613;51.788;21.582;2023-01-10T08:31:20;99695.02;;;5.31;100.00
51530;BME280;37613;51.788;21.582;2023-01-10T08:35:34;99700.91;;;5.39;100.00
51530;BME280;37613;51.788;21.582;2023-01-10T08:39:54;99703.21;;;5.48;100.00
51530;BME280;37613;51.788;21.582;2023-01-10T08:45:01;99707.59;;;5.53;100.00
51530;BME280;37613;51.788;21.582;2023-01-10T08:49:11;99710.42;;;5.53;100.00
51530;BME280;37613;51.788;21.582;2023-01-10T08:53:25;99714.15;;;5.52;100.00
51530;BME280;37613;51.788;21.582;2023-01-10T08:57:38;99727.63;;;5.51;100.00
51530;BME280;37613;51.788;21.582;2023-01-10T09:01:51;99730.82;;;5.49;100.00
51530;BME280;37613;51.788;21.582;2023-01-10T09:06:07;99739.15;;;5.45;100.00
51530;BME280;37613;51.788;21.582;2023-01-10T09:10:20;99737.77;;;5.41;100.00
51530;BME280;37613;51.788;21.582;2023-01-10T09:14:35;99739.87;;;5.39;100.00
51530;BME280;37613;51.788;21.582;2023-01-10T09:18:39;99746.37;;;5.38;100.00
51530;BME280;37613;51.788;21.582;2023-01-10T09:22:54;99753.82;;;5.38;100.00
51530;BME280;37613;51.788;21.582;2023-01-10T09:27:08;99753.89;;;5.38;100.00
51530;BME280;37613;51.788;21.582;2023-01-10T09:31:22;99753.76;;;5.35;100.00
51530;BME280;37613;51.788;21.582;2023-01-10T09:35:40;99746.80;;;5.30;100.00
51530;BME280;37613;51.788;21.582;2023-01-10T09:40:00;99740.33;;;5.27;100.00
51530;BME280;37613;51.788;21.582;2023-01-10T09:44:41;99732.84;;;5.23;100.00
51530;BME280;37613;51.788;21.582;2023-01-10T09:53:49;99739.80;;;5.17;100.00
51530;BME280;37613;51.788;21.582;2023-01-10T09:58:08;99736.27;;;5.16;100.00
51530;BME280;37613;51.788;21.582;2023-01-10T10:07:14;99738.60;;;5.15;100.00
51530;BME280;37613;51.788;21.582;2023-01-10T10:11:47;99748.21;;;5.14;100.00
51530;BME280;37613;51.788;21.582;2023-01-10T10:16:40;99754.75;;;5.16;100.00
51530;BME280;37613;51.788;21.582;2023-01-10T10:21:10;99755.41;;;5.18;100.00
51530;BME280;37613;51.788;21.582;2023-01-10T10:34:34;99756.96;;;5.22;100.00
51530;BME280;37613;51.788;21.582;2023-01-10T10:38:44;99759.21;;;5.21;100.00
51530;BME280;37613;51.788;21.582;2023-01-10T10:42:55;99760.65;;;5.22;100.00
51530;BME280;37613;51.788;21.582;2023-01-10T10:47:09;99760.29;;;5.20;100.00
51530;BME280;37613;51.788;21.582;2023-01-10T10:51:33;99764.39;;;5.17;100.00
51530;BME280;37613;51.788;21.582;2023-01-10T10:55:50;99766.14;;;5.13;100.00
51530;BME280;37613;51.788;21.582;2023-01-10T11:00:07;99753.23;;;5.04;100.00
51530;BME280;37613;51.788;21.582;2023-01-10T11:04:21;99769.94;;;5.11;100.00
51530;BME280;37613;51.788;21.582;2023-01-10T11:08:24;99773.24;;;5.12;100.00
51530;BME280;37613;51.788;21.582;2023-01-10T11:12:36;99776.15;;;5.12;100.00
51530;BME280;37613;51.788;21.582;2023-01-10T11:16:50;99780.27;;;5.10;100.00
51530;BME280;37613;51.788;21.582;2023-01-10T11:21:06;99787.48;;;5.09;100.00
51530;BME280;37613;51.788;21.582;2023-01-10T11:25:29;99795.39;;;5.10;100.00
51530;BME280;37613;51.788;21.582;2023-01-10T11:29:51;99796.79;;;5.08;100.00
51530;BME280;37613;51.788;21.582;2023-01-10T11:34:50;99798.98;;;5.08;100.00
51530;BME280;37613;51.788;21.582;2023-01-10T11:38:40;99801.48;;;5.08;100.00
51530;BME280;37613;51.788;21.582;2023-01-10T11:42:50;99803.13;;;5.08;100.00
51530;BME280;37613;51.788;21.582;2023-01-10T11:47:05;99812.02;;;5.06;100.00
51530;BME280;37613;51.788;21.582;2023-01-10T11:51:27;99819.98;;;5.04;100.00
51530;BME280;37613;51.788;21.582;2023-01-10T11:55:44;99824.67;;;5.04;100.00
51530;BME280;37613;51.788;21.582;2023-01-10T12:00:06;99826.81;;;5.10;100.00
51530;BME280;37613;51.788;21.582;2023-01-10T12:04:41;99833.17;;;5.11;100.00
51530;BME280;37613;51.788;21.582;2023-01-10T12:09:01;99840.84;;;5.10;100.00
51530;BME280;37613;51.788;21.582;2023-01-10T12:13:30;99849.25;;;5.07;100.00
51530;BME280;37613;51.788;21.582;2023-01-10T12:18:03;99858.66;;;5.06;100.00
51530;BME280;37613;51.788;21.582;2023-01-10T12:22:19;99862.30;;;5.04;100.00
51530;BME280;37613;51.788;21.582;2023-01-10T12:26:39;99863.58;;;5.01;100.00
51530;BME280;37613;51.788;21.582;2023-01-10T12:30:55;99868.00;;;4.98;100.00
51530;BME280;37613;51.788;21.582;2023-01-10T12:35:13;99871.47;;;4.96;100.00
51530;BME280;37613;51.788;21.582;2023-01-10T12:39:32;99882.83;;;5.05;100.00
51530;BME280;37613;51.788;21.582;2023-01-10T12:43:58;99893.61;;;5.08;100.00
51530;BME280;37613;51.788;21.582;2023-01-10T12:48:58;99899.87;;;5.02;100.00
51530;BME280;37613;51.788;21.582;2023-01-10T12:58:43;99911.23;;;4.94;100.00
51530;BME280;37613;51.788;21.582;2023-01-10T13:25:04;99956.69;;;4.88;100.00
51530;BME280;37613;51.788;21.582;2023-01-10T13:29:14;99964.20;;;4.87;100.00
51530;BME280;37613;51.788;21.582;2023-01-10T13:33:49;99971.93;;;4.86;100.00
51530;BME280;37613;51.788;21.582;2023-01-10T13:38:00;99982.90;;;4.86;100.00
51530;BME280;37613;51.788;21.582;2023-01-10T13:42:32;99988.43;;;4.84;100.00
51530;BME280;37613;51.788;21.582;2023-01-10T13:47:00;99993.91;;;4.83;100.00
51530;BME280;37613;51.788;21.582;2023-01-10T13:51:13;99998.30;;;4.84;100.00
51530;BME280;37613;51.788;21.582;2023-01-10T13:55:28;100004.49;;;4.84;100.00
51530;BME280;37613;51.788;21.582;2023-01-10T14:00:02;100007.16;;;4.85;100.00
51530;BME280;37613;51.788;21.582;2023-01-10T14:04:29;100013.52;;;4.86;100.00
51530;BME280;37613;51.788;21.582;2023-01-10T14:08:34;100014.78;;;4.86;100.00
51530;BME280;37613;51.788;21.582;2023-01-10T14:13:00;100019.65;;;4.87;100.00
51530;BME280;37613;51.788;21.582;2023-01-10T14:17:31;100013.91;;;4.86;100.00
51530;BME280;37613;51.788;21.582;2023-01-10T14:21:42;100010.61;;;4.85;100.00
51530;BME280;37613;51.788;21.582;2023-01-10T14:26:17;100013.59;;;4.81;100.00
51530;BME280;37613;51.788;21.582;2023-01-10T14:30:37;100018.63;;;4.79;100.00
51530;BME280;37613;51.788;21.582;2023-01-10T14:34:46;100015.31;;;4.78;100.00
51530;BME280;37613;51.788;21.582;2023-01-10T14:39:01;100020.14;;;4.76;100.00
51530;BME280;37613;51.788;21.582;2023-01-10T14:43:18;100023.08;;;4.74;100.00
51530;BME280;37613;51.788;21.582;2023-01-10T14:47:42;100027.42;;;4.72;100.00
51530;BME280;37613;51.788;21.582;2023-01-10T14:52:10;100035.23;;;4.71;100.00
51530;BME280;37613;51.788;21.582;2023-01-10T14:56:27;100041.99;;;4.64;100.00
51530;BME280;37613;51.788;21.582;2023-01-10T15:00:38;100050.77;;;4.69;100.00
51530;BME280;37613;51.788;21.582;2023-01-10T15:05:00;100056.98;;;4.70;100.00
51530;BME280;37613;51.788;21.582;2023-01-10T15:09:13;100061.52;;;4.70;100.00
51530;BME280;37613;51.788;21.582;2023-01-10T15:13:26;100064.09;;;4.69;100.00
51530;BME280;37613;51.788;21.582;2023-01-10T15:17:34;100068.04;;;4.71;100.00
51530;BME280;37613;51.788;21.582;2023-01-10T15:21:41;100070.98;;;4.74;100.00
51530;BME280;37613;51.788;21.582;2023-01-10T15:25:57;100075.11;;;4.72;100.00
51530;BME280;37613;51.788;21.582;2023-01-10T15:30:00;100082.53;;;4.71;100.00
51530;BME280;37613;51.788;21.582;2023-01-10T15:34:19;100094.20;;;4.71;100.00
51530;BME280;37613;51.788;21.582;2023-01-10T15:38:37;100098.14;;;4.73;100.00
51530;BME280;37613;51.788;21.582;2023-01-10T15:42:53;100097.98;;;4.76;100.00
51530;BME280;37613;51.788;21.582;2023-01-10T15:52:23;100101.91;;;4.77;100.00
51530;BME280;37613;51.788;21.582;2023-01-10T15:57:02;100096.73;;;4.76;100.00
51530;BME280;37613;51.788;21.582;2023-01-10T16:01:27;100095.23;;;4.76;100.00
51530;BME280;37613;51.788;21.582;2023-01-10T16:05:47;100095.63;;;4.75;100.00
51530;BME280;37613;51.788;21.582;2023-01-10T16:10:21;100098.87;;;4.74;100.00
51530;BME280;37613;51.788;21.582;2023-01-10T16:14:32;100096.50;;;4.73;100.00
51530;BME280;37613;51.788;21.582;2023-01-10T16:18:52;100103.07;;;4.72;100.00
51530;BME280;37613;51.788;21.582;2023-01-10T16:23:13;100114.56;;;4.71;100.00
51530;BME280;37613;51.788;21.582;2023-01-10T16:33:19;100125.13;;;4.67;100.00
51530;BME280;37613;51.788;21.582;2023-01-10T16:37:32;100127.51;;;4.66;100.00
51530;BME280;37613;51.788;21.582;2023-01-10T16:41:55;100127.67;;;4.63;100.00
51530;BME280;37613;51.788;21.582;2023-01-10T16:46:32;100132.63;;;4.60;100.00
51530;BME280;37613;51.788;21.582;2023-01-10T16:50:53;100136.16;;;4.57;100.00
51530;BME280;37613;51.788;21.582;2023-01-10T16:55:19;100143.79;;;4.56;100.00
51530;BME280;37613;51.788;21.582;2023-01-10T16:59:38;100146.68;;;4.55;100.00
51530;BME280;37613;51.788;21.582;2023-01-10T17:03:55;100147.30;;;4.55;100.00
51530;BME280;37613;51.788;21.582;2023-01-10T17:08:15;100153.71;;;4.54;100.00
51530;BME280;37613;51.788;21.582;2023-01-10T17:12:34;100163.70;;;4.53;100.00
51530;BME280;37613;51.788;21.582;2023-01-10T17:16:49;100172.48;;;4.51;100.00
51530;BME280;37613;51.788;21.582;2023-01-10T17:21:04;100183.98;;;4.50;100.00
51530;BME280;37613;51.788;21.582;2023-01-10T17:25:21;100188.11;;;4.50;100.00
51530;BME280;37613;51.788;21.582;2023-01-10T17:29:34;100194.34;;;4.51;100.00
51530;BME280;37613;51.788;21.582;2023-01-10T17:33:49;100197.77;;;4.51;100.00
51530;BME280;37613;51.788;21.582;2023-01-10T17:38:04;100196.48;;;4.49;100.00
51530;BME280;37613;51.788;21.582;2023-01-10T17:42:08;100210.08;;;4.48;100.00
51530;BME280;37613;51.788;21.582;2023-01-10T17:46:13;100214.13;;;4.47;100.00
51530;BME280;37613;51.788;21.582;2023-01-10T17:50:20;100215.66;;;4.45;100.00
51530;BME280;37613;51.788;21.582;2023-01-10T17:54:33;100224.98;;;4.43;100.00
51530;BME280;37613;51.788;21.582;2023-01-10T17:58:47;100226.98;;;4.42;100.00
51530;BME280;37613;51.788;21.582;2023-01-10T18:02:52;100231.56;;;4.40;100.00
51530;BME280;37613;51.788;21.582;2023-01-10T18:07:03;100238.66;;;4.39;100.00
51530;BME280;37613;51.788;21.582;2023-01-10T18:11:19;100244.13;;;4.38;100.00
51530;BME280;37613;51.788;21.582;2023-01-10T18:15:34;100255.13;;;4.37;100.00
51530;BME280;37613;51.788;21.582;2023-01-10T18:19:47;100260.86;;;4.35;100.00
51530;BME280;37613;51.788;21.582;2023-01-10T18:23:55;100264.88;;;4.33;100.00
51530;BME280;37613;51.788;21.582;2023-01-10T18:28:19;100267.28;;;4.32;100.00
51530;BME280;37613;51.788;21.582;2023-01-10T18:32:45;100267.58;;;4.32;100.00
51530;BME280;37613;51.788;21.582;2023-01-10T18:36:47;100271.77;;;4.30;100.00
51530;BME280;37613;51.788;21.582;2023-01-10T18:40:50;100279.36;;;4.27;100.00
51530;BME280;37613;51.788;21.582;2023-01-10T18:44:52;100275.92;;;4.25;100.00
51530;BME280;37613;51.788;21.582;2023-01-10T18:49:03;100281.87;;;4.27;100.00
51530;BME280;37613;51.788;21.582;2023-01-10T18:53:17;100277.51;;;4.20;100.00
51530;BME280;37613;51.788;21.582;2023-01-10T18:57:34;100297.23;;;4.23;100.00
51530;BME280;37613;51.788;21.582;2023-01-10T19:01:49;100296.58;;;4.19;100.00
51530;BME280;37613;51.788;21.582;2023-01-10T19:06:06;100300.67;;;4.17;100.00
51530;BME280;37613;51.788;21.582;2023-01-10T19:10:20;100306.88;;;4.12;100.00
51530;BME280;37613;51.788;21.582;2023-01-10T19:14:56;100303.10;;;4.08;100.00
51530;BME280;37613;51.788;21.582;2023-01-10T19:19:12;100306.89;;;4.06;100.00
51530;BME280;37613;51.788;21.582;2023-01-10T19:23:16;100299.02;;;3.99;100.00
51530;BME280;37613;51.788;21.582;2023-01-10T19:27:25;100308.25;;;3.99;100.00
51530;BME280;37613;51.788;21.582;2023-01-10T19:31:36;100313.61;;;3.95;100.00
51530;BME280;37613;51.788;21.582;2023-01-10T19:35:48;100309.73;;;3.88;100.00
51530;BME280;37613;51.788;21.582;2023-01-10T19:40:11;100319.24;;;3.87;100.00
51530;BME280;37613;51.788;21.582;2023-01-10T19:44:25;100321.73;;;3.83;100.00
51530;BME280;37613;51.788;21.582;2023-01-10T19:48:44;100317.95;;;3.76;100.00
51530;BME280;37613;51.788;21.582;2023-01-10T19:53:03;100321.90;;;3.76;100.00
51530;BME280;37613;51.788;21.582;2023-01-10T19:57:21;100331.38;;;3.79;100.00
51530;BME280;37613;51.788;21.582;2023-01-10T20:01:36;100341.60;;;3.75;100.00
51530;BME280;37613;51.788;21.582;2023-01-10T20:05:47;100347.84;;;3.73;100.00
51530;BME280;37613;51.788;21.582;2023-01-10T20:10:12;100351.59;;;3.70;100.00
51530;BME280;37613;51.788;21.582;2023-01-10T20:14:20;100357.44;;;3.66;100.00
51530;BME280;37613;51.788;21.582;2023-01-10T20:18:38;100359.89;;;3.62;100.00
51530;BME280;37613;51.788;21.582;2023-01-10T20:22:58;100359.30;;;3.60;100.00
51530;BME280;37613;51.788;21.582;2023-01-10T20:27:20;100358.92;;;3.59;100.00
51530;BME280;37613;51.788;21.582;2023-01-10T20:31:39;100361.98;;;3.57;100.00
51530;BME280;37613;51.788;21.582;2023-01-10T20:36:14;100366.45;;;3.55;100.00
51530;BME280;37613;51.788;21.582;2023-01-10T20:40:28;100368.22;;;3.53;100.00
51530;BME280;37613;51.788;21.582;2023-01-10T20:44:57;100373.98;;;3.50;100.00
51530;BME280;37613;51.788;21.582;2023-01-10T20:49:17;100371.33;;;3.48;100.00
51530;BME280;37613;51.788;21.582;2023-01-10T20:53:35;100370.41;;;3.46;100.00
51530;BME280;37613;51.788;21.582;2023-01-10T21:02:29;100372.46;;;3.39;100.00
51530;BME280;37613;51.788;21.582;2023-01-10T21:06:46;100373.23;;;3.38;100.00
51530;BME280;37613;51.788;21.582;2023-01-10T21:10:59;100369.23;;;3.36;100.00
51530;BME280;37613;51.788;21.582;2023-01-10T21:15:30;100373.89;;;3.35;100.00
51530;BME280;37613;51.788;21.582;2023-01-10T21:20:02;100383.66;;;3.35;100.00
51530;BME280;37613;51.788;21.582;2023-01-10T21:24:25;100384.25;;;3.31;100.00
51530;BME280;37613;51.788;21.582;2023-01-10T21:28:51;100392.68;;;3.33;100.00
51530;BME280;37613;51.788;21.582;2023-01-10T21:33:23;100390.60;;;3.29;100.00
51530;BME280;37613;51.788;21.582;2023-01-10T21:37:43;100393.64;;;3.25;100.00
51530;BME280;37613;51.788;21.582;2023-01-10T21:42:36;100398.86;;;3.19;100.00
51530;BME280;37613;51.788;21.582;2023-01-10T21:46:58;100403.38;;;3.14;100.00
51530;BME280;37613;51.788;21.582;2023-01-10T21:51:07;100408.81;;;3.08;100.00
51530;BME280;37613;51.788;21.582;2023-01-10T21:55:15;100418.34;;;3.03;100.00
51530;BME280;37613;51.788;21.582;2023-01-10T21:59:21;100421.48;;;2.99;100.00
51530;BME280;37613;51.788;21.582;2023-01-10T22:03:32;100427.29;;;2.95;100.00
51530;BME280;37613;51.788;21.582;2023-01-10T22:07:42;100426.80;;;2.92;100.00
51530;BME280;37613;51.788;21.582;2023-01-10T22:11:53;100427.08;;;2.91;100.00
51530;BME280;37613;51.788;21.582;2023-01-10T22:16:04;100425.01;;;2.90;100.00
51530;BME280;37613;51.788;21.582;2023-01-10T22:20:15;100418.37;;;2.83;100.00
51530;BME280;37613;51.788;21.582;2023-01-10T22:24:29;100423.33;;;2.89;100.00
51530;BME280;37613;51.788;21.582;2023-01-10T22:28:38;100423.71;;;2.87;100.00
51530;BME280;37613;51.788;21.582;2023-01-10T22:32:48;100426.67;;;2.82;100.00
51530;BME280;37613;51.788;21.582;2023-01-10T22:37:01;100434.44;;;2.76;100.00
51530;BME280;37613;51.788;21.582;2023-01-10T22:41:20;100436.05;;;2.71;100.00
51530;BME280;37613;51.788;21.582;2023-01-10T22:45:41;100439.59;;;2.69;100.00
51530;BME280;37613;51.788;21.582;2023-01-10T22:49:55;100444.15;;;2.66;100.00
51530;BME280;37613;51.788;21.582;2023-01-10T22:54:07;100449.07;;;2.62;100.00
51530;BME280;37613;51.788;21.582;2023-01-10T22:58:21;100455.62;;;2.57;100.00
51530;BME280;37613;51.788;21.582;2023-01-10T23:02:34;100458.54;;;2.54;100.00
51530;BME280;37613;51.788;21.582;2023-01-10T23:06:47;100452.02;;;2.50;100.00
51530;BME280;37613;51.788;21.582;2023-01-10T23:10:58;100448.33;;;2.47;100.00
51530;BME280;37613;51.788;21.582;2023-01-10T23:15:13;100450.90;;;2.47;100.00
51530;BME280;37613;51.788;21.582;2023-01-10T23:19:27;100441.59;;;2.45;100.00
51530;BME280;37613;51.788;21.582;2023-01-10T23:23:43;100440.40;;;2.42;100.00
51530;BME280;37613;51.788;21.582;2023-01-10T23:27:55;100442.08;;;2.39;100.00
51530;BME280;37613;51.788;21.582;2023-01-10T23:32:09;100442.92;;;2.36;100.00
51530;BME280;37613;51.788;21.582;2023-01-10T23:36:31;100452.48;;;2.33;100.00
51530;BME280;37613;51.788;21.582;2023-01-10T23:40:48;100454.10;;;2.28;100.00